Vasiliy Bozhenko — URHP — position and weather

sailwx.info

Track history (hours):
 
Tides and Currents Weather Stations Pressure Air Temp Water Temp Dewpoint Dewpoint Depression Visibility Wind Speed Wind Dir Waves Ship Positions

Vasiliy Bozhenko

Last reported at 2017-Feb-19 19:15 UTC. Time now 2017-Feb-25 07:25 UTC.
Position N 46°22' E 030°55'.

Length 114 m; draft 3.9 m.

Type: Cargo ship. MMSI: 272085000.

Date/timePositionNaut miles runAvg speedWind from/ knotsBaromVisibWave heightAir tempDewpointWater temp
2017-Feb-19 19:15N 46°22' E 030°55'5 6.6
2017-Feb-19 18:33N 46°26' E 030°55'34 6.5
2017-Feb-19 13:20N 46°36' E 031°43'6 7.6
2017-Feb-19 12:34N 46°35' E 031°51'7 6.8
2017-Feb-19 11:33N 46°33' E 032°01'  
2017-Feb-16 06:12N 46°33' E 032°21'3 4.7
2017-Feb-16 05:33N 46°33' E 032°17'5 4.9
2017-Feb-16 04:33N 46°32' E 032°10'4 4.1
2017-Feb-16 03:33N 46°32' E 032°04'3 3.4
2017-Feb-16 02:33N 46°33' E 031°59'3 2.9
2017-Feb-16 01:33N 46°34' E 031°55'2 1.8
2017-Feb-16 00:33N 46°35' E 031°53'3 2.7
2017-Feb-15 23:33N 46°35' E 031°49'36 7.0
2017-Feb-15 18:22N 46°31' E 030°57'6 6.7
2017-Feb-15 17:33N 46°26' E 030°57'  
Track history (hours):
 
Tides and Currents Weather Stations Pressure Air Temp Water Temp Dewpoint Dewpoint Depression Visibility Wind Speed Wind Dir Waves Ship Positions

Vasiliy Bozhenko

Last reported at 2017-Feb-19 19:15 UTC. Time now 2017-Feb-25 07:25 UTC.
Position N 46°22' E 030°55'.

Length 114 m; draft 3.9 m.

Type: Cargo ship. MMSI: 272085000.

Date/timePositionNaut miles runAvg speedWind from/ knotsBaromVisibWave heightAir tempDewpointWater temp
2017-Feb-19 19:15N 46°22' E 030°55'5 6.6
2017-Feb-19 18:33N 46°26' E 030°55'34 6.5
2017-Feb-19 13:20N 46°36' E 031°43'6 7.6
2017-Feb-19 12:34N 46°35' E 031°51'7 6.8
2017-Feb-19 11:33N 46°33' E 032°01'  
2017-Feb-16 06:12N 46°33' E 032°21'3 4.7
2017-Feb-16 05:33N 46°33' E 032°17'5 4.9
2017-Feb-16 04:33N 46°32' E 032°10'4 4.1
2017-Feb-16 03:33N 46°32' E 032°04'3 3.4
2017-Feb-16 02:33N 46°33' E 031°59'3 2.9
2017-Feb-16 01:33N 46°34' E 031°55'2 1.8
2017-Feb-16 00:33N 46°35' E 031°53'3 2.7
2017-Feb-15 23:33N 46°35' E 031°49'36 7.0
2017-Feb-15 18:22N 46°31' E 030°57'6 6.7
2017-Feb-15 17:33N 46°26' E 030°57'  

Dump ship's entire track history